sensor_id;sensor_type;location;lat;lon;timestamp;pressure;altitude;pressure_sealevel;temperature;humidity
22333;BME280;11334;36.986;-121.936;2023-07-20T00:02:04;101216.38;;;31.17;37.42
22333;BME280;11334;36.986;-121.936;2023-07-20T00:04:31;101223.47;;;31.22;37.71
22333;BME280;11334;36.986;-121.936;2023-07-20T00:06:58;101217.09;;;31.47;36.67
22333;BME280;11334;36.986;-121.936;2023-07-20T00:09:26;101210.41;;;31.67;36.71
22333;BME280;11334;36.986;-121.936;2023-07-20T00:11:53;101212.06;;;31.68;36.70
22333;BME280;11334;36.986;-121.936;2023-07-20T00:14:19;101206.56;;;31.78;35.90
22333;BME280;11334;36.986;-121.936;2023-07-20T00:16:46;101204.91;;;31.77;36.18
22333;BME280;11334;36.986;-121.936;2023-07-20T00:19:14;101198.47;;;31.96;36.33
22333;BME280;11334;36.986;-121.936;2023-07-20T00:21:42;101194.56;;;32.02;36.35
22333;BME280;11334;36.986;-121.936;2023-07-20T00:24:08;101198.97;;;32.03;35.93
22333;BME280;11334;36.986;-121.936;2023-07-20T00:26:35;101196.75;;;32.10;35.49
22333;BME280;11334;36.986;-121.936;2023-07-20T00:29:01;101197.78;;;32.14;35.19
22333;BME280;11334;36.986;-121.936;2023-07-20T00:31:27;101198.47;;;32.34;34.98
22333;BME280;11334;36.986;-121.936;2023-07-20T00:33:55;101194.59;;;32.40;35.82
22333;BME280;11334;36.986;-121.936;2023-07-20T00:36:21;101192.91;;;32.44;34.95
22333;BME280;11334;36.986;-121.936;2023-07-20T00:38:47;101188.22;;;32.78;35.07
22333;BME280;11334;36.986;-121.936;2023-07-20T00:41:13;101178.38;;;32.72;34.60
22333;BME280;11334;36.986;-121.936;2023-07-20T00:43:40;101188.38;;;32.86;34.57
22333;BME280;11334;36.986;-121.936;2023-07-20T00:46:07;101186.50;;;32.81;34.31
22333;BME280;11334;36.986;-121.936;2023-07-20T00:48:34;101187.75;;;32.94;33.68
22333;BME280;11334;36.986;-121.936;2023-07-20T00:51:01;101188.00;;;32.97;33.50
22333;BME280;11334;36.986;-121.936;2023-07-20T00:53:28;101188.16;;;33.06;33.87
22333;BME280;11334;36.986;-121.936;2023-07-20T00:55:55;101186.59;;;33.00;34.13
22333;BME280;11334;36.986;-121.936;2023-07-20T00:58:22;101184.25;;;32.88;34.45
22333;BME280;11334;36.986;-121.936;2023-07-20T01:00:49;101186.63;;;33.18;33.73
22333;BME280;11334;36.986;-121.936;2023-07-20T01:03:15;101186.75;;;33.08;33.66
22333;BME280;11334;36.986;-121.936;2023-07-20T01:09:08;101188.50;;;33.22;33.20
22333;BME280;11334;36.986;-121.936;2023-07-20T01:14:14;101185.25;;;33.20;32.71
22333;BME280;11334;36.986;-121.936;2023-07-20T01:16:42;101182.72;;;33.29;32.73
22333;BME280;11334;36.986;-121.936;2023-07-20T01:19:08;101194.78;;;33.28;33.48
22333;BME280;11334;36.986;-121.936;2023-07-20T01:21:42;101196.28;;;33.15;33.66
22333;BME280;11334;36.986;-121.936;2023-07-20T01:25:41;101200.44;;;33.13;33.80
22333;BME280;11334;36.986;-121.936;2023-07-20T01:30:43;101197.59;;;32.72;34.87
22333;BME280;11334;36.986;-121.936;2023-07-20T01:33:13;101198.25;;;32.26;35.16
22333;BME280;11334;36.986;-121.936;2023-07-20T01:35:42;101193.00;;;31.96;35.95
22333;BME280;11334;36.986;-121.936;2023-07-20T01:38:12;101202.66;;;32.27;35.65
22333;BME280;11334;36.986;-121.936;2023-07-20T01:40:40;101200.28;;;32.11;35.01
22333;BME280;11334;36.986;-121.936;2023-07-20T01:43:06;101195.50;;;31.93;35.85
22333;BME280;11334;36.986;-121.936;2023-07-20T01:45:33;101201.22;;;31.44;35.80
22333;BME280;11334;36.986;-121.936;2023-07-20T01:47:59;101200.19;;;31.20;36.24
22333;BME280;11334;36.986;-121.936;2023-07-20T01:50:25;101205.19;;;30.88;36.92
22333;BME280;11334;36.986;-121.936;2023-07-20T01:52:52;101204.41;;;30.68;37.78
22333;BME280;11334;36.986;-121.936;2023-07-20T01:55:18;101205.78;;;30.46;38.19
22333;BME280;11334;36.986;-121.936;2023-07-20T01:57:44;101197.31;;;30.28;38.36
22333;BME280;11334;36.986;-121.936;2023-07-20T02:00:11;101202.72;;;29.98;38.75
22333;BME280;11334;36.986;-121.936;2023-07-20T02:02:37;101198.31;;;29.73;39.09
22333;BME280;11334;36.986;-121.936;2023-07-20T02:05:04;101195.50;;;29.53;39.19
22333;BME280;11334;36.986;-121.936;2023-07-20T02:07:31;101193.81;;;29.42;39.81
22333;BME280;11334;36.986;-121.936;2023-07-20T02:09:57;101202.25;;;29.31;39.80
22333;BME280;11334;36.986;-121.936;2023-07-20T02:12:24;101197.41;;;29.02;40.06
22333;BME280;11334;36.986;-121.936;2023-07-20T02:14:50;101182.63;;;28.98;40.13
22333;BME280;11334;36.986;-121.936;2023-07-20T02:17:17;101207.00;;;29.04;40.17
22333;BME280;11334;36.986;-121.936;2023-07-20T02:19:43;101211.75;;;28.83;40.63
22333;BME280;11334;36.986;-121.936;2023-07-20T02:22:10;101204.81;;;28.29;41.99
22333;BME280;11334;36.986;-121.936;2023-07-20T02:24:36;101213.78;;;27.99;42.74
22333;BME280;11334;36.986;-121.936;2023-07-20T02:27:02;101225.41;;;27.47;43.79
22333;BME280;11334;36.986;-121.936;2023-07-20T02:29:29;101219.56;;;26.97;44.86
22333;BME280;11334;36.986;-121.936;2023-07-20T02:31:55;101224.94;;;26.43;46.17
22333;BME280;11334;36.986;-121.936;2023-07-20T02:34:21;101231.34;;;25.93;47.49
22333;BME280;11334;36.986;-121.936;2023-07-20T02:36:47;101234.09;;;25.54;48.11
22333;BME280;11334;36.986;-121.936;2023-07-20T02:39:14;101233.53;;;24.91;50.66
22333;BME280;11334;36.986;-121.936;2023-07-20T02:41:40;101231.47;;;24.52;51.89
22333;BME280;11334;36.986;-121.936;2023-07-20T02:44:07;101227.72;;;24.13;52.80
22333;BME280;11334;36.986;-121.936;2023-07-20T02:46:33;101237.41;;;23.91;53.73
22333;BME280;11334;36.986;-121.936;2023-07-20T02:49:01;101235.56;;;23.63;55.34
22333;BME280;11334;36.986;-121.936;2023-07-20T02:51:27;101233.13;;;23.37;55.77
22333;BME280;11334;36.986;-121.936;2023-07-20T02:53:54;101239.84;;;23.17;56.91
22333;BME280;11334;36.986;-121.936;2023-07-20T02:56:20;101251.63;;;22.87;58.06
22333;BME280;11334;36.986;-121.936;2023-07-20T02:58:48;101247.75;;;22.52;59.20
22333;BME280;11334;36.986;-121.936;2023-07-20T03:01:14;101251.84;;;22.37;60.18
22333;BME280;11334;36.986;-121.936;2023-07-20T03:03:42;101246.25;;;22.02;61.50
22333;BME280;11334;36.986;-121.936;2023-07-20T03:06:16;101244.84;;;21.99;62.11
22333;BME280;11334;36.986;-121.936;2023-07-20T03:08:43;101249.47;;;21.86;62.56
22333;BME280;11334;36.986;-121.936;2023-07-20T03:11:19;101248.34;;;21.63;63.78
22333;BME280;11334;36.986;-121.936;2023-07-20T03:13:45;101248.81;;;21.60;63.85
22333;BME280;11334;36.986;-121.936;2023-07-20T03:16:13;101254.47;;;21.39;64.97
22333;BME280;11334;36.986;-121.936;2023-07-20T03:18:43;101253.88;;;21.31;65.20
22333;BME280;11334;36.986;-121.936;2023-07-20T03:21:10;101254.50;;;21.26;65.64
22333;BME280;11334;36.986;-121.936;2023-07-20T03:23:38;101245.81;;;21.18;66.39
22333;BME280;11334;36.986;-121.936;2023-07-20T03:26:04;101254.34;;;21.09;66.55
22333;BME280;11334;36.986;-121.936;2023-07-20T03:28:30;101252.72;;;20.95;67.20
22333;BME280;11334;36.986;-121.936;2023-07-20T03:30:57;101245.09;;;20.79;67.81
22333;BME280;11334;36.986;-121.936;2023-07-20T03:33:28;101243.63;;;20.77;68.15
22333;BME280;11334;36.986;-121.936;2023-07-20T03:35:55;101252.97;;;20.68;68.72
22333;BME280;11334;36.986;-121.936;2023-07-20T03:38:22;101255.88;;;20.66;68.68
22333;BME280;11334;36.986;-121.936;2023-07-20T03:40:50;101252.56;;;20.64;68.81
22333;BME280;11334;36.986;-121.936;2023-07-20T03:43:17;101244.28;;;20.59;69.08
22333;BME280;11334;36.986;-121.936;2023-07-20T03:45:43;101246.13;;;20.53;69.53
22333;BME280;11334;36.986;-121.936;2023-07-20T03:48:11;101247.59;;;20.49;69.75
22333;BME280;11334;36.986;-121.936;2023-07-20T03:50:38;101250.25;;;20.42;69.78
22333;BME280;11334;36.986;-121.936;2023-07-20T03:53:04;101255.25;;;20.39;70.71
22333;BME280;11334;36.986;-121.936;2023-07-20T03:55:30;101262.88;;;20.35;70.86
22333;BME280;11334;36.986;-121.936;2023-07-20T03:57:57;101258.97;;;20.25;71.19
22333;BME280;11334;36.986;-121.936;2023-07-20T04:00:23;101263.72;;;20.17;72.14
22333;BME280;11334;36.986;-121.936;2023-07-20T04:02:49;101262.28;;;20.14;72.21
22333;BME280;11334;36.986;-121.936;2023-07-20T04:05:16;101265.75;;;20.08;72.67
22333;BME280;11334;36.986;-121.936;2023-07-20T04:07:42;101274.25;;;20.05;72.83
22333;BME280;11334;36.986;-121.936;2023-07-20T04:10:09;101273.63;;;20.03;73.09
22333;BME280;11334;36.986;-121.936;2023-07-20T04:12:35;101274.03;;;20.00;73.24
22333;BME280;11334;36.986;-121.936;2023-07-20T04:15:02;101278.78;;;19.92;73.67
22333;BME280;11334;36.986;-121.936;2023-07-20T04:17:29;101277.75;;;19.87;73.86
22333;BME280;11334;36.986;-121.936;2023-07-20T04:19:56;101282.03;;;19.81;73.63
22333;BME280;11334;36.986;-121.936;2023-07-20T04:22:22;101277.66;;;19.74;74.04
22333;BME280;11334;36.986;-121.936;2023-07-20T04:24:48;101286.19;;;19.84;73.80
22333;BME280;11334;36.986;-121.936;2023-07-20T04:27:14;101277.66;;;19.74;73.84
22333;BME280;11334;36.986;-121.936;2023-07-20T04:29:40;101293.22;;;19.78;74.16
22333;BME280;11334;36.986;-121.936;2023-07-20T04:32:07;101293.03;;;19.80;74.16
22333;BME280;11334;36.986;-121.936;2023-07-20T04:34:33;101295.91;;;19.78;74.08
22333;BME280;11334;36.986;-121.936;2023-07-20T04:37:04;101298.34;;;19.67;74.50
22333;BME280;11334;36.986;-121.936;2023-07-20T04:39:30;101296.84;;;19.58;74.85
22333;BME280;11334;36.986;-121.936;2023-07-20T04:41:57;101308.19;;;19.54;75.19
22333;BME280;11334;36.986;-121.936;2023-07-20T04:44:23;101308.81;;;19.56;74.99
22333;BME280;11334;36.986;-121.936;2023-07-20T04:46:50;101309.63;;;19.50;75.19
22333;BME280;11334;36.986;-121.936;2023-07-20T04:49:16;101314.38;;;19.54;75.34
22333;BME280;11334;36.986;-121.936;2023-07-20T04:51:42;101309.22;;;19.53;75.22
22333;BME280;11334;36.986;-121.936;2023-07-20T04:54:09;101311.28;;;19.51;75.51
22333;BME280;11334;36.986;-121.936;2023-07-20T04:56:35;101305.84;;;19.38;76.16
22333;BME280;11334;36.986;-121.936;2023-07-20T04:59:01;101307.94;;;19.42;75.77
22333;BME280;11334;36.986;-121.936;2023-07-20T05:01:28;101311.41;;;19.36;76.20
22333;BME280;11334;36.986;-121.936;2023-07-20T05:03:54;101312.63;;;19.28;76.47
22333;BME280;11334;36.986;-121.936;2023-07-20T05:06:20;101313.03;;;19.31;76.45
22333;BME280;11334;36.986;-121.936;2023-07-20T05:08:47;101314.50;;;19.33;76.22
22333;BME280;11334;36.986;-121.936;2023-07-20T05:11:13;101311.19;;;19.31;76.69
22333;BME280;11334;36.986;-121.936;2023-07-20T05:13:40;101321.69;;;19.27;77.03
22333;BME280;11334;36.986;-121.936;2023-07-20T05:16:06;101316.97;;;19.29;77.12
22333;BME280;11334;36.986;-121.936;2023-07-20T05:18:33;101322.03;;;19.17;77.43
22333;BME280;11334;36.986;-121.936;2023-07-20T05:20:59;101327.63;;;19.16;77.28
22333;BME280;11334;36.986;-121.936;2023-07-20T05:23:25;101324.72;;;19.11;77.97
22333;BME280;11334;36.986;-121.936;2023-07-20T05:25:56;101328.81;;;19.07;78.08
22333;BME280;11334;36.986;-121.936;2023-07-20T05:28:23;101325.53;;;19.11;78.25
22333;BME280;11334;36.986;-121.936;2023-07-20T05:30:51;101318.84;;;19.01;78.32
22333;BME280;11334;36.986;-121.936;2023-07-20T05:33:20;101325.47;;;19.05;78.39
22333;BME280;11334;36.986;-121.936;2023-07-20T05:35:47;101320.50;;;19.02;78.17
22333;BME280;11334;36.986;-121.936;2023-07-20T05:38:14;101316.34;;;18.99;78.21
22333;BME280;11334;36.986;-121.936;2023-07-20T05:40:41;101320.47;;;18.96;78.48
22333;BME280;11334;36.986;-121.936;2023-07-20T05:43:10;101308.81;;;18.89;78.86
22333;BME280;11334;36.986;-121.936;2023-07-20T05:45:37;101307.59;;;18.91;79.13
22333;BME280;11334;36.986;-121.936;2023-07-20T05:48:03;101309.47;;;18.91;79.37
22333;BME280;11334;36.986;-121.936;2023-07-20T05:50:30;101308.97;;;18.81;79.33
22333;BME280;11334;36.986;-121.936;2023-07-20T05:52:56;101306.94;;;18.83;79.50
22333;BME280;11334;36.986;-121.936;2023-07-20T05:55:22;101307.75;;;18.83;79.52
22333;BME280;11334;36.986;-121.936;2023-07-20T05:57:48;101300.91;;;18.81;79.72
22333;BME280;11334;36.986;-121.936;2023-07-20T06:00:15;101307.91;;;18.75;79.98
22333;BME280;11334;36.986;-121.936;2023-07-20T06:02:44;101302.06;;;18.72;80.30
22333;BME280;11334;36.986;-121.936;2023-07-20T06:05:11;101297.69;;;18.65;80.46
22333;BME280;11334;36.986;-121.936;2023-07-20T06:07:38;101302.28;;;18.70;80.53
22333;BME280;11334;36.986;-121.936;2023-07-20T06:10:06;101293.00;;;18.73;80.90
22333;BME280;11334;36.986;-121.936;2023-07-20T06:12:33;101305.00;;;18.77;80.75
22333;BME280;11334;36.986;-121.936;2023-07-20T06:15:03;101308.50;;;18.77;80.49
22333;BME280;11334;36.986;-121.936;2023-07-20T06:17:29;101308.28;;;18.72;80.53
22333;BME280;11334;36.986;-121.936;2023-07-20T06:19:56;101301.00;;;18.67;80.72
22333;BME280;11334;36.986;-121.936;2023-07-20T06:22:22;101306.81;;;18.70;80.61
22333;BME280;11334;36.986;-121.936;2023-07-20T06:24:48;101315.00;;;18.62;80.97
22333;BME280;11334;36.986;-121.936;2023-07-20T06:27:14;101312.13;;;18.64;80.95
22333;BME280;11334;36.986;-121.936;2023-07-20T06:29:41;101309.25;;;18.65;81.01
22333;BME280;11334;36.986;-121.936;2023-07-20T06:32:08;101313.13;;;18.63;81.01
22333;BME280;11334;36.986;-121.936;2023-07-20T06:34:34;101314.19;;;18.62;80.63
22333;BME280;11334;36.986;-121.936;2023-07-20T06:37:04;101312.06;;;18.57;81.03
22333;BME280;11334;36.986;-121.936;2023-07-20T06:39:30;101316.22;;;18.60;80.39
22333;BME280;11334;36.986;-121.936;2023-07-20T06:41:56;101324.28;;;18.60;80.46
22333;BME280;11334;36.986;-121.936;2023-07-20T06:44:23;101321.59;;;18.60;80.22
22333;BME280;11334;36.986;-121.936;2023-07-20T06:46:49;101323.03;;;18.56;80.10
22333;BME280;11334;36.986;-121.936;2023-07-20T06:49:25;101314.06;;;18.49;80.62
22333;BME280;11334;36.986;-121.936;2023-07-20T06:51:52;101318.16;;;18.45;80.79
22333;BME280;11334;36.986;-121.936;2023-07-20T06:54:18;101334.81;;;18.40;80.81
22333;BME280;11334;36.986;-121.936;2023-07-20T06:56:45;101324.88;;;18.35;81.43
22333;BME280;11334;36.986;-121.936;2023-07-20T06:59:11;101321.13;;;18.29;81.31
22333;BME280;11334;36.986;-121.936;2023-07-20T07:01:37;101324.06;;;18.34;81.51
22333;BME280;11334;36.986;-121.936;2023-07-20T07:04:04;101320.53;;;18.34;81.37
22333;BME280;11334;36.986;-121.936;2023-07-20T07:06:31;101311.34;;;18.22;81.71
22333;BME280;11334;36.986;-121.936;2023-07-20T07:08:58;101316.84;;;18.14;82.14
22333;BME280;11334;36.986;-121.936;2023-07-20T07:11:25;101324.28;;;18.18;82.37
22333;BME280;11334;36.986;-121.936;2023-07-20T07:13:51;101317.09;;;18.19;82.22
22333;BME280;11334;36.986;-121.936;2023-07-20T07:16:17;101323.03;;;18.14;82.42
22333;BME280;11334;36.986;-121.936;2023-07-20T07:18:46;101315.16;;;18.13;82.83
22333;BME280;11334;36.986;-121.936;2023-07-20T07:21:13;101312.13;;;18.02;83.44
22333;BME280;11334;36.986;-121.936;2023-07-20T07:23:39;101322.50;;;18.04;83.25
22333;BME280;11334;36.986;-121.936;2023-07-20T07:26:06;101307.13;;;17.99;83.38
22333;BME280;11334;36.986;-121.936;2023-07-20T07:28:32;101322.00;;;18.01;83.57
22333;BME280;11334;36.986;-121.936;2023-07-20T07:30:58;101313.69;;;17.96;83.40
22333;BME280;11334;36.986;-121.936;2023-07-20T07:33:25;101313.34;;;17.99;83.61
22333;BME280;11334;36.986;-121.936;2023-07-20T07:35:51;101317.22;;;17.97;83.76
22333;BME280;11334;36.986;-121.936;2023-07-20T07:38:19;101295.06;;;17.88;83.81
22333;BME280;11334;36.986;-121.936;2023-07-20T07:40:45;101315.94;;;17.93;84.37
22333;BME280;11334;36.986;-121.936;2023-07-20T07:43:12;101315.50;;;17.89;84.12
22333;BME280;11334;36.986;-121.936;2023-07-20T07:45:40;101307.63;;;17.88;84.62
22333;BME280;11334;36.986;-121.936;2023-07-20T07:48:06;101308.03;;;17.85;84.35
22333;BME280;11334;36.986;-121.936;2023-07-20T07:50:33;101309.78;;;17.78;84.94
22333;BME280;11334;36.986;-121.936;2023-07-20T07:53:00;101307.38;;;17.83;84.99
22333;BME280;11334;36.986;-121.936;2023-07-20T07:55:26;101302.84;;;17.83;85.26
22333;BME280;11334;36.986;-121.936;2023-07-20T07:57:54;101297.47;;;17.83;85.36
22333;BME280;11334;36.986;-121.936;2023-07-20T08:00:20;101301.19;;;17.82;85.86
22333;BME280;11334;36.986;-121.936;2023-07-20T08:02:47;101306.84;;;17.73;86.48
22333;BME280;11334;36.986;-121.936;2023-07-20T08:05:16;101304.81;;;17.75;86.64
22333;BME280;11334;36.986;-121.936;2023-07-20T08:07:43;101296.94;;;17.73;87.11
22333;BME280;11334;36.986;-121.936;2023-07-20T08:10:09;101311.81;;;17.76;86.86
22333;BME280;11334;36.986;-121.936;2023-07-20T08:12:36;101303.34;;;17.72;87.00
22333;BME280;11334;36.986;-121.936;2023-07-20T08:15:02;101304.16;;;17.73;87.32
22333;BME280;11334;36.986;-121.936;2023-07-20T08:17:29;101305.81;;;17.74;87.42
22333;BME280;11334;36.986;-121.936;2023-07-20T08:19:55;101300.28;;;17.75;87.26
22333;BME280;11334;36.986;-121.936;2023-07-20T08:22:23;101306.03;;;17.72;87.10
22333;BME280;11334;36.986;-121.936;2023-07-20T08:24:49;101309.19;;;17.62;88.11
22333;BME280;11334;36.986;-121.936;2023-07-20T08:27:15;101303.09;;;17.53;88.69
22333;BME280;11334;36.986;-121.936;2023-07-20T08:29:42;101305.72;;;17.47;89.37
22333;BME280;11334;36.986;-121.936;2023-07-20T08:32:08;101298.22;;;17.42;89.36
22333;BME280;11334;36.986;-121.936;2023-07-20T08:34:34;101293.69;;;17.43;89.52
22333;BME280;11334;36.986;-121.936;2023-07-20T08:37:00;101292.88;;;17.42;90.01
22333;BME280;11334;36.986;-121.936;2023-07-20T08:39:27;101296.38;;;17.43;89.96
22333;BME280;11334;36.986;-121.936;2023-07-20T08:41:54;101294.63;;;17.36;90.40
22333;BME280;11334;36.986;-121.936;2023-07-20T08:44:22;101299.59;;;17.39;90.72
22333;BME280;11334;36.986;-121.936;2023-07-20T08:46:49;101297.47;;;17.34;91.12
22333;BME280;11334;36.986;-121.936;2023-07-20T08:49:17;101285.13;;;17.19;91.84
22333;BME280;11334;36.986;-121.936;2023-07-20T08:51:46;101291.03;;;17.14;92.44
22333;BME280;11334;36.986;-121.936;2023-07-20T08:54:13;101299.59;;;17.10;92.75
22333;BME280;11334;36.986;-121.936;2023-07-20T08:56:41;101290.91;;;16.94;94.29
22333;BME280;11334;36.986;-121.936;2023-07-20T08:59:09;101292.22;;;16.98;94.32
22333;BME280;11334;36.986;-121.936;2023-07-20T09:01:37;101288.50;;;16.99;94.30
22333;BME280;11334;36.986;-121.936;2023-07-20T09:04:05;101286.66;;;16.99;94.27
22333;BME280;11334;36.986;-121.936;2023-07-20T09:06:32;101286.00;;;16.97;94.58
22333;BME280;11334;36.986;-121.936;2023-07-20T09:09:00;101285.09;;;16.90;94.99
22333;BME280;11334;36.986;-121.936;2023-07-20T09:11:26;101278.63;;;16.99;94.94
22333;BME280;11334;36.986;-121.936;2023-07-20T09:14:22;101281.41;;;17.06;94.42
22333;BME280;11334;36.986;-121.936;2023-07-20T09:16:55;101283.53;;;16.96;94.57
22333;BME280;11334;36.986;-121.936;2023-07-20T09:19:22;101281.84;;;16.95;94.58
22333;BME280;11334;36.986;-121.936;2023-07-20T09:21:50;101287.69;;;16.98;94.83
22333;BME280;11334;36.986;-121.936;2023-07-20T09:24:18;101291.63;;;17.02;94.72
22333;BME280;11334;36.986;-121.936;2023-07-20T09:26:46;101288.97;;;17.02;94.18
22333;BME280;11334;36.986;-121.936;2023-07-20T09:29:19;101281.94;;;17.01;94.26
22333;BME280;11334;36.986;-121.936;2023-07-20T09:32:04;101283.25;;;17.05;94.46
22333;BME280;11334;36.986;-121.936;2023-07-20T09:34:31;101283.00;;;17.14;94.17
22333;BME280;11334;36.986;-121.936;2023-07-20T09:37:01;101281.50;;;17.12;93.91
22333;BME280;11334;36.986;-121.936;2023-07-20T09:39:27;101280.00;;;17.09;93.70
22333;BME280;11334;36.986;-121.936;2023-07-20T09:41:54;101282.50;;;17.11;93.83
22333;BME280;11334;36.986;-121.936;2023-07-20T09:44:27;101281.56;;;17.04;94.53
22333;BME280;11334;36.986;-121.936;2023-07-20T09:46:54;101282.69;;;16.95;94.61
22333;BME280;11334;36.986;-121.936;2023-07-20T09:49:21;101276.69;;;16.93;94.84
22333;BME280;11334;36.986;-121.936;2023-07-20T09:51:48;101274.56;;;17.03;94.48
22333;BME280;11334;36.986;-121.936;2023-07-20T09:54:16;101269.59;;;17.00;94.50
22333;BME280;11334;36.986;-121.936;2023-07-20T09:56:43;101278.34;;;17.08;94.44
22333;BME280;11334;36.986;-121.936;2023-07-20T09:59:10;101277.00;;;17.12;94.20
22333;BME280;11334;36.986;-121.936;2023-07-20T10:01:37;101277.16;;;17.11;94.26
22333;BME280;11334;36.986;-121.936;2023-07-20T10:04:11;101268.56;;;17.01;94.27
22333;BME280;11334;36.986;-121.936;2023-07-20T10:06:42;101276.44;;;17.03;94.29
22333;BME280;11334;36.986;-121.936;2023-07-20T10:09:10;101274.56;;;17.03;94.25
22333;BME280;11334;36.986;-121.936;2023-07-20T10:11:42;101269.75;;;16.99;94.10
22333;BME280;11334;36.986;-121.936;2023-07-20T10:14:12;101272.16;;;16.79;95.07
22333;BME280;11334;36.986;-121.936;2023-07-20T10:16:44;101265.31;;;16.77;95.88
22333;BME280;11334;36.986;-121.936;2023-07-20T10:19:24;101267.16;;;16.76;95.99
22333;BME280;11334;36.986;-121.936;2023-07-20T10:21:59;101267.63;;;16.80;96.03
22333;BME280;11334;36.986;-121.936;2023-07-20T10:24:28;101264.13;;;16.79;95.74
22333;BME280;11334;36.986;-121.936;2023-07-20T10:26:55;101269.09;;;16.82;95.41
22333;BME280;11334;36.986;-121.936;2023-07-20T10:29:22;101261.38;;;16.73;96.14
22333;BME280;11334;36.986;-121.936;2023-07-20T10:31:49;101267.28;;;16.83;95.99
22333;BME280;11334;36.986;-121.936;2023-07-20T10:34:16;101258.75;;;16.79;95.86
22333;BME280;11334;36.986;-121.936;2023-07-20T10:36:46;101262.84;;;16.76;96.08
22333;BME280;11334;36.986;-121.936;2023-07-20T10:39:27;101261.25;;;16.67;96.41
22333;BME280;11334;36.986;-121.936;2023-07-20T10:42:06;101251.09;;;16.62;97.15
22333;BME280;11334;36.986;-121.936;2023-07-20T10:44:33;101248.78;;;16.59;97.58
22333;BME280;11334;36.986;-121.936;2023-07-20T10:47:06;101260.97;;;16.62;97.53
22333;BME280;11334;36.986;-121.936;2023-07-20T10:49:34;101265.94;;;16.65;97.71
22333;BME280;11334;36.986;-121.936;2023-07-20T10:52:05;101265.25;;;16.71;97.20
22333;BME280;11334;36.986;-121.936;2023-07-20T10:57:23;101267.25;;;16.69;96.82
22333;BME280;11334;36.986;-121.936;2023-07-20T10:59:50;101263.28;;;16.65;97.44
22333;BME280;11334;36.986;-121.936;2023-07-20T11:02:20;101264.66;;;16.61;97.30
22333;BME280;11334;36.986;-121.936;2023-07-20T11:04:47;101263.66;;;16.62;97.46
22333;BME280;11334;36.986;-121.936;2023-07-20T11:07:35;101245.19;;;16.67;97.48
22333;BME280;11334;36.986;-121.936;2023-07-20T11:10:13;101254.53;;;16.71;97.11
22333;BME280;11334;36.986;-121.936;2023-07-20T11:13:16;101244.00;;;16.69;97.30
22333;BME280;11334;36.986;-121.936;2023-07-20T11:18:28;101257.63;;;16.60;97.59
22333;BME280;11334;36.986;-121.936;2023-07-20T11:20:54;101253.69;;;16.56;98.48
22333;BME280;11334;36.986;-121.936;2023-07-20T11:23:21;101257.84;;;16.58;98.31
22333;BME280;11334;36.986;-121.936;2023-07-20T11:25:48;101254.97;;;16.60;98.68
22333;BME280;11334;36.986;-121.936;2023-07-20T11:28:15;101253.75;;;16.62;98.20
22333;BME280;11334;36.986;-121.936;2023-07-20T11:30:41;101263.00;;;16.60;98.06
22333;BME280;11334;36.986;-121.936;2023-07-20T11:33:10;101252.13;;;16.61;98.04
22333;BME280;11334;36.986;-121.936;2023-07-20T11:35:44;101248.25;;;16.64;98.09
22333;BME280;11334;36.986;-121.936;2023-07-20T11:38:13;101252.69;;;16.71;98.04
22333;BME280;11334;36.986;-121.936;2023-07-20T11:40:46;101250.84;;;16.72;97.67
22333;BME280;11334;36.986;-121.936;2023-07-20T11:43:13;101245.84;;;16.69;97.60
22333;BME280;11334;36.986;-121.936;2023-07-20T11:45:39;101243.19;;;16.69;97.70
22333;BME280;11334;36.986;-121.936;2023-07-20T11:48:05;101243.63;;;16.72;97.92
22333;BME280;11334;36.986;-121.936;2023-07-20T11:50:32;101247.31;;;16.71;97.69
22333;BME280;11334;36.986;-121.936;2023-07-20T11:53:04;101241.88;;;16.65;97.84
22333;BME280;11334;36.986;-121.936;2023-07-20T11:55:31;101251.19;;;16.54;97.85
22333;BME280;11334;36.986;-121.936;2023-07-20T11:58:02;101246.66;;;16.55;97.56
22333;BME280;11334;36.986;-121.936;2023-07-20T12:00:28;101251.84;;;16.56;97.24
22333;BME280;11334;36.986;-121.936;2023-07-20T12:02:55;101249.88;;;16.50;97.55
22333;BME280;11334;36.986;-121.936;2023-07-20T12:05:22;101254.03;;;16.53;97.64
22333;BME280;11334;36.986;-121.936;2023-07-20T12:07:49;101246.84;;;16.53;97.56
22333;BME280;11334;36.986;-121.936;2023-07-20T12:10:26;101246.09;;;16.59;97.32
22333;BME280;11334;36.986;-121.936;2023-07-20T12:12:53;101247.38;;;16.49;97.30
22333;BME280;11334;36.986;-121.936;2023-07-20T12:15:23;101249.97;;;16.57;97.70
22333;BME280;11334;36.986;-121.936;2023-07-20T12:17:54;101260.16;;;16.61;97.88
22333;BME280;11334;36.986;-121.936;2023-07-20T12:20:32;101256.66;;;16.61;97.93
22333;BME280;11334;36.986;-121.936;2023-07-20T12:23:01;101256.91;;;16.51;98.67
22333;BME280;11334;36.986;-121.936;2023-07-20T12:25:41;101264.38;;;16.56;99.41
22333;BME280;11334;36.986;-121.936;2023-07-20T12:28:12;101267.22;;;16.54;99.39
22333;BME280;11334;36.986;-121.936;2023-07-20T12:30:41;101271.47;;;16.49;100.00
22333;BME280;11334;36.986;-121.936;2023-07-20T12:33:07;101253.81;;;16.40;100.00
22333;BME280;11334;36.986;-121.936;2023-07-20T12:35:34;101257.97;;;16.43;100.00
22333;BME280;11334;36.986;-121.936;2023-07-20T12:38:00;101273.66;;;16.45;100.00
22333;BME280;11334;36.986;-121.936;2023-07-20T12:40:27;101272.84;;;16.45;100.00